sensor_id;sensor_type;location;lat;lon;timestamp;P1;durP1;ratioP1;P2;durP2;ratioP2
22490;SDS011;11412;50.802;4.350;2024-02-14T00:01:03;2.47;;;2.28;;
22490;SDS011;11412;50.802;4.350;2024-02-14T00:03:29;3.28;;;2.95;;
22490;SDS011;11412;50.802;4.350;2024-02-14T00:05:55;6.38;;;3.35;;
22490;SDS011;11412;50.802;4.350;2024-02-14T00:08:22;3.67;;;2.80;;
22490;SDS011;11412;50.802;4.350;2024-02-14T00:10:48;7.65;;;2.90;;
22490;SDS011;11412;50.802;4.350;2024-02-14T00:13:14;3.22;;;2.90;;
22490;SDS011;11412;50.802;4.350;2024-02-14T00:15:40;3.38;;;2.60;;
22490;SDS011;11412;50.802;4.350;2024-02-14T00:18:06;3.28;;;2.80;;
22490;SDS011;11412;50.802;4.350;2024-02-14T00:20:32;5.70;;;2.95;;
22490;SDS011;11412;50.802;4.350;2024-02-14T00:22:58;3.38;;;3.08;;
22490;SDS011;11412;50.802;4.350;2024-02-14T00:25:23;2.70;;;2.50;;
22490;SDS011;11412;50.802;4.350;2024-02-14T00:27:49;4.63;;;3.25;;
22490;SDS011;11412;50.802;4.350;2024-02-14T00:30:15;3.20;;;2.90;;
22490;SDS011;11412;50.802;4.350;2024-02-14T00:32:40;3.67;;;3.05;;
22490;SDS011;11412;50.802;4.350;2024-02-14T00:35:06;3.35;;;2.53;;
22490;SDS011;11412;50.802;4.350;2024-02-14T00:37:32;3.13;;;2.75;;
22490;SDS011;11412;50.802;4.350;2024-02-14T00:39:59;3.53;;;2.80;;
22490;SDS011;11412;50.802;4.350;2024-02-14T00:42:24;3.42;;;3.10;;
22490;SDS011;11412;50.802;4.350;2024-02-14T00:44:50;2.80;;;2.58;;
22490;SDS011;11412;50.802;4.350;2024-02-14T00:47:16;4.57;;;2.80;;
22490;SDS011;11412;50.802;4.350;2024-02-14T00:49:42;6.50;;;2.67;;
22490;SDS011;11412;50.802;4.350;2024-02-14T00:52:08;3.80;;;2.85;;
22490;SDS011;11412;50.802;4.350;2024-02-14T00:54:34;4.00;;;2.88;;
22490;SDS011;11412;50.802;4.350;2024-02-14T00:57:00;2.92;;;2.70;;
22490;SDS011;11412;50.802;4.350;2024-02-14T00:59:26;3.58;;;2.50;;
22490;SDS011;11412;50.802;4.350;2024-02-14T01:01:52;4.03;;;3.30;;
22490;SDS011;11412;50.802;4.350;2024-02-14T01:04:18;3.00;;;2.70;;
22490;SDS011;11412;50.802;4.350;2024-02-14T01:06:44;4.57;;;3.35;;
22490;SDS011;11412;50.802;4.350;2024-02-14T01:09:09;5.22;;;3.28;;
22490;SDS011;11412;50.802;4.350;2024-02-14T01:11:35;5.20;;;3.35;;
22490;SDS011;11412;50.802;4.350;2024-02-14T01:14:03;5.30;;;3.28;;
22490;SDS011;11412;50.802;4.350;2024-02-14T01:16:29;3.88;;;3.40;;
22490;SDS011;11412;50.802;4.350;2024-02-14T01:18:55;6.38;;;3.47;;
22490;SDS011;11412;50.802;4.350;2024-02-14T01:21:21;6.75;;;3.80;;
22490;SDS011;11412;50.802;4.350;2024-02-14T01:23:47;5.03;;;3.65;;
22490;SDS011;11412;50.802;4.350;2024-02-14T01:26:13;4.72;;;3.38;;
22490;SDS011;11412;50.802;4.350;2024-02-14T01:28:39;3.83;;;3.47;;
22490;SDS011;11412;50.802;4.350;2024-02-14T01:31:05;4.90;;;3.35;;
22490;SDS011;11412;50.802;4.350;2024-02-14T01:33:30;5.25;;;3.60;;
22490;SDS011;11412;50.802;4.350;2024-02-14T01:35:56;5.32;;;3.75;;
22490;SDS011;11412;50.802;4.350;2024-02-14T01:38:23;5.70;;;3.50;;
22490;SDS011;11412;50.802;4.350;2024-02-14T01:40:48;3.55;;;3.05;;
22490;SDS011;11412;50.802;4.350;2024-02-14T01:43:14;6.03;;;4.53;;
22490;SDS011;11412;50.802;4.350;2024-02-14T01:45:40;7.78;;;4.30;;
22490;SDS011;11412;50.802;4.350;2024-02-14T01:48:07;5.30;;;4.32;;
22490;SDS011;11412;50.802;4.350;2024-02-14T01:50:34;5.20;;;3.90;;
22490;SDS011;11412;50.802;4.350;2024-02-14T01:53:00;6.15;;;4.22;;
22490;SDS011;11412;50.802;4.350;2024-02-14T01:55:28;5.60;;;3.90;;
22490;SDS011;11412;50.802;4.350;2024-02-14T01:57:54;10.25;;;4.22;;
22490;SDS011;11412;50.802;4.350;2024-02-14T02:00:20;7.82;;;4.90;;
22490;SDS011;11412;50.802;4.350;2024-02-14T02:02:46;10.48;;;4.60;;
22490;SDS011;11412;50.802;4.350;2024-02-14T02:05:12;7.82;;;3.63;;
22490;SDS011;11412;50.802;4.350;2024-02-14T02:07:38;8.65;;;4.63;;
22490;SDS011;11412;50.802;4.350;2024-02-14T02:10:08;5.93;;;3.97;;
22490;SDS011;11412;50.802;4.350;2024-02-14T02:12:37;8.10;;;4.13;;
22490;SDS011;11412;50.802;4.350;2024-02-14T02:15:06;6.93;;;4.10;;
22490;SDS011;11412;50.802;4.350;2024-02-14T02:17:32;7.35;;;4.13;;
22490;SDS011;11412;50.802;4.350;2024-02-14T02:20:01;10.07;;;4.47;;
22490;SDS011;11412;50.802;4.350;2024-02-14T02:22:27;6.68;;;4.40;;
22490;SDS011;11412;50.802;4.350;2024-02-14T02:24:57;7.53;;;4.07;;
22490;SDS011;11412;50.802;4.350;2024-02-14T02:27:23;5.53;;;3.88;;
22490;SDS011;11412;50.802;4.350;2024-02-14T02:29:49;5.82;;;4.47;;
22490;SDS011;11412;50.802;4.350;2024-02-14T02:32:15;8.63;;;4.63;;
22490;SDS011;11412;50.802;4.350;2024-02-14T02:34:42;9.35;;;4.35;;
22490;SDS011;11412;50.802;4.350;2024-02-14T02:37:07;7.13;;;4.32;;
22490;SDS011;11412;50.802;4.350;2024-02-14T02:39:34;7.53;;;4.30;;
22490;SDS011;11412;50.802;4.350;2024-02-14T02:42:01;7.97;;;3.97;;
22490;SDS011;11412;50.802;4.350;2024-02-14T02:44:31;9.82;;;4.60;;
22490;SDS011;11412;50.802;4.350;2024-02-14T02:46:56;7.72;;;4.18;;
22490;SDS011;11412;50.802;4.350;2024-02-14T02:49:22;7.32;;;4.55;;
22490;SDS011;11412;50.802;4.350;2024-02-14T02:51:48;7.15;;;4.68;;
22490;SDS011;11412;50.802;4.350;2024-02-14T02:54:13;7.32;;;4.90;;
22490;SDS011;11412;50.802;4.350;2024-02-14T02:56:39;6.40;;;4.97;;
22490;SDS011;11412;50.802;4.350;2024-02-14T02:59:06;7.07;;;4.78;;
22490;SDS011;11412;50.802;4.350;2024-02-14T03:01:35;7.57;;;4.75;;
22490;SDS011;11412;50.802;4.350;2024-02-14T03:04:01;6.35;;;4.63;;
22490;SDS011;11412;50.802;4.350;2024-02-14T03:06:27;7.80;;;4.70;;
22490;SDS011;11412;50.802;4.350;2024-02-14T03:08:53;7.07;;;5.03;;
22490;SDS011;11412;50.802;4.350;2024-02-14T03:11:20;11.63;;;5.07;;
22490;SDS011;11412;50.802;4.350;2024-02-14T03:13:46;9.75;;;5.18;;
22490;SDS011;11412;50.802;4.350;2024-02-14T03:16:13;7.60;;;5.05;;
22490;SDS011;11412;50.802;4.350;2024-02-14T03:18:40;8.38;;;4.43;;
22490;SDS011;11412;50.802;4.350;2024-02-14T03:21:06;6.75;;;4.50;;
22490;SDS011;11412;50.802;4.350;2024-02-14T03:23:31;6.50;;;4.45;;
22490;SDS011;11412;50.802;4.350;2024-02-14T03:25:57;10.88;;;5.30;;
22490;SDS011;11412;50.802;4.350;2024-02-14T03:28:23;9.52;;;5.07;;
22490;SDS011;11412;50.802;4.350;2024-02-14T03:30:49;7.93;;;5.03;;
22490;SDS011;11412;50.802;4.350;2024-02-14T03:33:15;7.82;;;5.28;;
22490;SDS011;11412;50.802;4.350;2024-02-14T03:35:41;11.35;;;5.28;;
22490;SDS011;11412;50.802;4.350;2024-02-14T03:38:07;11.82;;;5.53;;
22490;SDS011;11412;50.802;4.350;2024-02-14T03:40:35;13.48;;;5.80;;
22490;SDS011;11412;50.802;4.350;2024-02-14T03:43:03;11.43;;;5.82;;
22490;SDS011;11412;50.802;4.350;2024-02-14T03:45:29;11.38;;;6.10;;
22490;SDS011;11412;50.802;4.350;2024-02-14T03:47:55;11.63;;;5.80;;
22490;SDS011;11412;50.802;4.350;2024-02-14T03:50:21;12.23;;;5.82;;
22490;SDS011;11412;50.802;4.350;2024-02-14T03:52:47;12.23;;;5.82;;
22490;SDS011;11412;50.802;4.350;2024-02-14T03:55:14;13.13;;;5.50;;
22490;SDS011;11412;50.802;4.350;2024-02-14T03:57:42;13.95;;;5.90;;
22490;SDS011;11412;50.802;4.350;2024-02-14T04:00:10;14.95;;;6.53;;
22490;SDS011;11412;50.802;4.350;2024-02-14T04:02:36;10.90;;;6.00;;
22490;SDS011;11412;50.802;4.350;2024-02-14T04:05:02;9.20;;;5.75;;
22490;SDS011;11412;50.802;4.350;2024-02-14T04:07:28;13.75;;;6.43;;
22490;SDS011;11412;50.802;4.350;2024-02-14T04:09:54;12.80;;;6.35;;
22490;SDS011;11412;50.802;4.350;2024-02-14T04:12:20;11.93;;;6.47;;
22490;SDS011;11412;50.802;4.350;2024-02-14T04:14:46;12.20;;;6.60;;
22490;SDS011;11412;50.802;4.350;2024-02-14T04:17:12;12.43;;;7.15;;
22490;SDS011;11412;50.802;4.350;2024-02-14T04:19:38;9.75;;;6.70;;
22490;SDS011;11412;50.802;4.350;2024-02-14T04:22:04;12.57;;;7.20;;
22490;SDS011;11412;50.802;4.350;2024-02-14T04:24:32;12.25;;;6.85;;
22490;SDS011;11412;50.802;4.350;2024-02-14T04:26:59;13.23;;;8.00;;
22490;SDS011;11412;50.802;4.350;2024-02-14T04:29:26;12.35;;;7.35;;
22490;SDS011;11412;50.802;4.350;2024-02-14T04:31:53;14.25;;;6.78;;
22490;SDS011;11412;50.802;4.350;2024-02-14T04:34:19;13.57;;;7.25;;
22490;SDS011;11412;50.802;4.350;2024-02-14T04:36:44;14.18;;;6.75;;
22490;SDS011;11412;50.802;4.350;2024-02-14T04:39:10;11.98;;;6.38;;
22490;SDS011;11412;50.802;4.350;2024-02-14T04:41:36;11.65;;;6.80;;
22490;SDS011;11412;50.802;4.350;2024-02-14T04:44:05;12.45;;;6.22;;
22490;SDS011;11412;50.802;4.350;2024-02-14T04:46:33;12.90;;;6.63;;
22490;SDS011;11412;50.802;4.350;2024-02-14T04:49:03;11.88;;;6.85;;
22490;SDS011;11412;50.802;4.350;2024-02-14T04:51:29;8.85;;;6.22;;
22490;SDS011;11412;50.802;4.350;2024-02-14T04:53:56;13.45;;;6.35;;
22490;SDS011;11412;50.802;4.350;2024-02-14T04:56:25;12.80;;;6.40;;
22490;SDS011;11412;50.802;4.350;2024-02-14T04:58:52;10.07;;;7.13;;
22490;SDS011;11412;50.802;4.350;2024-02-14T05:01:18;8.60;;;6.43;;
22490;SDS011;11412;50.802;4.350;2024-02-14T05:03:44;8.90;;;6.57;;
22490;SDS011;11412;50.802;4.350;2024-02-14T05:06:11;10.57;;;6.28;;
22490;SDS011;11412;50.802;4.350;2024-02-14T05:08:36;11.63;;;6.82;;
22490;SDS011;11412;50.802;4.350;2024-02-14T05:11:02;12.88;;;7.30;;
22490;SDS011;11412;50.802;4.350;2024-02-14T05:13:28;12.75;;;6.93;;
22490;SDS011;11412;50.802;4.350;2024-02-14T05:15:55;12.18;;;7.10;;
22490;SDS011;11412;50.802;4.350;2024-02-14T05:18:21;10.90;;;6.43;;
22490;SDS011;11412;50.802;4.350;2024-02-14T05:20:47;14.98;;;7.20;;
22490;SDS011;11412;50.802;4.350;2024-02-14T05:23:13;12.02;;;6.72;;
22490;SDS011;11412;50.802;4.350;2024-02-14T05:25:38;9.30;;;7.13;;
22490;SDS011;11412;50.802;4.350;2024-02-14T05:28:04;10.27;;;6.78;;
22490;SDS011;11412;50.802;4.350;2024-02-14T05:30:30;12.27;;;7.28;;
22490;SDS011;11412;50.802;4.350;2024-02-14T05:32:57;7.53;;;5.85;;
22490;SDS011;11412;50.802;4.350;2024-02-14T05:35:22;8.98;;;6.22;;
22490;SDS011;11412;50.802;4.350;2024-02-14T05:37:48;11.32;;;6.68;;
22490;SDS011;11412;50.802;4.350;2024-02-14T05:40:15;8.77;;;6.25;;
22490;SDS011;11412;50.802;4.350;2024-02-14T05:42:40;13.70;;;7.00;;
22490;SDS011;11412;50.802;4.350;2024-02-14T05:45:06;8.70;;;6.43;;
22490;SDS011;11412;50.802;4.350;2024-02-14T05:47:35;14.07;;;6.65;;
22490;SDS011;11412;50.802;4.350;2024-02-14T05:50:00;11.43;;;6.55;;
22490;SDS011;11412;50.802;4.350;2024-02-14T05:52:26;10.63;;;6.35;;
22490;SDS011;11412;50.802;4.350;2024-02-14T05:54:52;10.55;;;6.57;;
22490;SDS011;11412;50.802;4.350;2024-02-14T05:57:19;8.93;;;6.65;;
22490;SDS011;11412;50.802;4.350;2024-02-14T05:59:45;9.77;;;6.95;;
22490;SDS011;11412;50.802;4.350;2024-02-14T06:02:10;10.30;;;6.18;;
22490;SDS011;11412;50.802;4.350;2024-02-14T06:04:36;9.52;;;7.03;;
22490;SDS011;11412;50.802;4.350;2024-02-14T06:07:02;9.95;;;6.60;;
22490;SDS011;11412;50.802;4.350;2024-02-14T06:09:30;11.77;;;7.10;;
22490;SDS011;11412;50.802;4.350;2024-02-14T06:11:56;11.48;;;7.65;;
22490;SDS011;11412;50.802;4.350;2024-02-14T06:14:21;11.73;;;7.55;;
22490;SDS011;11412;50.802;4.350;2024-02-14T06:16:47;12.02;;;7.18;;
22490;SDS011;11412;50.802;4.350;2024-02-14T06:19:13;9.02;;;6.28;;
22490;SDS011;11412;50.802;4.350;2024-02-14T06:21:38;12.00;;;7.28;;
22490;SDS011;11412;50.802;4.350;2024-02-14T06:24:04;13.88;;;6.95;;
22490;SDS011;11412;50.802;4.350;2024-02-14T06:26:30;11.25;;;7.50;;
22490;SDS011;11412;50.802;4.350;2024-02-14T06:28:58;10.85;;;6.95;;
22490;SDS011;11412;50.802;4.350;2024-02-14T06:31:24;10.10;;;6.57;;
22490;SDS011;11412;50.802;4.350;2024-02-14T06:33:49;13.68;;;6.80;;
22490;SDS011;11412;50.802;4.350;2024-02-14T06:36:15;14.13;;;7.03;;
22490;SDS011;11412;50.802;4.350;2024-02-14T06:38:41;11.82;;;7.05;;
22490;SDS011;11412;50.802;4.350;2024-02-14T06:41:06;13.10;;;6.78;;
22490;SDS011;11412;50.802;4.350;2024-02-14T06:43:32;12.68;;;7.20;;
22490;SDS011;11412;50.802;4.350;2024-02-14T06:45:59;15.10;;;6.78;;
22490;SDS011;11412;50.802;4.350;2024-02-14T06:48:24;12.15;;;7.20;;
22490;SDS011;11412;50.802;4.350;2024-02-14T06:50:50;11.23;;;6.60;;
22490;SDS011;11412;50.802;4.350;2024-02-14T06:53:17;8.55;;;6.30;;
22490;SDS011;11412;50.802;4.350;2024-02-14T06:55:43;11.15;;;6.38;;
22490;SDS011;11412;50.802;4.350;2024-02-14T06:58:09;11.30;;;6.72;;
22490;SDS011;11412;50.802;4.350;2024-02-14T07:00:35;10.98;;;6.93;;
22490;SDS011;11412;50.802;4.350;2024-02-14T07:03:00;11.55;;;6.07;;
22490;SDS011;11412;50.802;4.350;2024-02-14T07:05:26;13.10;;;7.18;;
22490;SDS011;11412;50.802;4.350;2024-02-14T07:07:55;13.25;;;6.50;;
22490;SDS011;11412;50.802;4.350;2024-02-14T07:10:21;14.27;;;6.25;;
22490;SDS011;11412;50.802;4.350;2024-02-14T07:12:47;10.50;;;6.63;;
22490;SDS011;11412;50.802;4.350;2024-02-14T07:15:13;10.90;;;6.55;;
22490;SDS011;11412;50.802;4.350;2024-02-14T07:17:39;9.60;;;6.30;;
22490;SDS011;11412;50.802;4.350;2024-02-14T07:20:05;9.25;;;5.90;;
22490;SDS011;11412;50.802;4.350;2024-02-14T07:22:35;13.35;;;6.07;;
22490;SDS011;11412;50.802;4.350;2024-02-14T07:25:01;13.90;;;6.80;;
22490;SDS011;11412;50.802;4.350;2024-02-14T07:27:27;9.23;;;6.43;;
22490;SDS011;11412;50.802;4.350;2024-02-14T07:29:53;12.45;;;6.32;;
22490;SDS011;11412;50.802;4.350;2024-02-14T07:32:18;11.98;;;6.45;;
22490;SDS011;11412;50.802;4.350;2024-02-14T07:34:44;11.57;;;6.50;;
22490;SDS011;11412;50.802;4.350;2024-02-14T07:37:11;9.75;;;6.60;;
22490;SDS011;11412;50.802;4.350;2024-02-14T07:39:36;17.08;;;7.70;;
22490;SDS011;11412;50.802;4.350;2024-02-14T07:42:02;13.32;;;7.13;;
22490;SDS011;11412;50.802;4.350;2024-02-14T07:44:28;10.40;;;6.63;;
22490;SDS011;11412;50.802;4.350;2024-02-14T07:46:54;13.95;;;7.03;;
22490;SDS011;11412;50.802;4.350;2024-02-14T07:49:19;10.32;;;6.88;;
22490;SDS011;11412;50.802;4.350;2024-02-14T07:51:45;11.48;;;7.05;;
22490;SDS011;11412;50.802;4.350;2024-02-14T07:54:11;13.85;;;6.68;;
22490;SDS011;11412;50.802;4.350;2024-02-14T07:56:37;13.85;;;6.43;;
22490;SDS011;11412;50.802;4.350;2024-02-14T07:59:02;11.05;;;6.70;;
22490;SDS011;11412;50.802;4.350;2024-02-14T08:01:30;11.40;;;6.60;;
22490;SDS011;11412;50.802;4.350;2024-02-14T08:03:57;10.57;;;6.50;;
22490;SDS011;11412;50.802;4.350;2024-02-14T08:06:23;15.02;;;6.70;;
22490;SDS011;11412;50.802;4.350;2024-02-14T08:08:49;10.60;;;6.53;;
22490;SDS011;11412;50.802;4.350;2024-02-14T08:11:19;10.85;;;6.60;;
22490;SDS011;11412;50.802;4.350;2024-02-14T08:13:45;8.27;;;6.20;;
22490;SDS011;11412;50.802;4.350;2024-02-14T08:16:10;11.70;;;6.25;;
22490;SDS011;11412;50.802;4.350;2024-02-14T08:18:36;9.50;;;6.95;;
22490;SDS011;11412;50.802;4.350;2024-02-14T08:21:04;11.02;;;6.82;;
22490;SDS011;11412;50.802;4.350;2024-02-14T08:23:31;11.73;;;7.18;;
22490;SDS011;11412;50.802;4.350;2024-02-14T08:25:57;13.45;;;6.68;;
22490;SDS011;11412;50.802;4.350;2024-02-14T08:28:22;11.50;;;7.40;;
22490;SDS011;11412;50.802;4.350;2024-02-14T08:30:48;11.27;;;6.93;;
22490;SDS011;11412;50.802;4.350;2024-02-14T08:33:14;12.00;;;6.93;;
22490;SDS011;11412;50.802;4.350;2024-02-14T08:35:39;11.07;;;7.88;;
22490;SDS011;11412;50.802;4.350;2024-02-14T08:38:05;10.63;;;6.90;;
22490;SDS011;11412;50.802;4.350;2024-02-14T08:40:31;11.63;;;7.47;;
22490;SDS011;11412;50.802;4.350;2024-02-14T08:42:57;13.45;;;7.03;;
22490;SDS011;11412;50.802;4.350;2024-02-14T08:45:24;10.75;;;7.00;;
22490;SDS011;11412;50.802;4.350;2024-02-14T08:47:50;13.88;;;7.15;;
22490;SDS011;11412;50.802;4.350;2024-02-14T08:50:16;11.35;;;7.40;;
22490;SDS011;11412;50.802;4.350;2024-02-14T08:52:42;11.15;;;7.82;;
22490;SDS011;11412;50.802;4.350;2024-02-14T08:55:08;12.65;;;8.13;;
22490;SDS011;11412;50.802;4.350;2024-02-14T08:57:39;12.35;;;7.95;;
22490;SDS011;11412;50.802;4.350;2024-02-14T09:00:06;10.45;;;8.38;;
22490;SDS011;11412;50.802;4.350;2024-02-14T09:02:32;10.90;;;8.20;;
22490;SDS011;11412;50.802;4.350;2024-02-14T09:05:00;12.45;;;8.25;;
22490;SDS011;11412;50.802;4.350;2024-02-14T09:07:26;13.35;;;8.00;;
22490;SDS011;11412;50.802;4.350;2024-02-14T09:09:52;15.98;;;8.82;;
22490;SDS011;11412;50.802;4.350;2024-02-14T09:12:17;11.00;;;8.23;;
22490;SDS011;11412;50.802;4.350;2024-02-14T09:14:43;15.43;;;9.23;;
22490;SDS011;11412;50.802;4.350;2024-02-14T09:17:09;13.25;;;8.40;;
22490;SDS011;11412;50.802;4.350;2024-02-14T09:19:35;12.30;;;8.20;;
22490;SDS011;11412;50.802;4.350;2024-02-14T09:22:01;11.43;;;8.23;;
22490;SDS011;11412;50.802;4.350;2024-02-14T09:24:31;9.55;;;7.88;;
22490;SDS011;11412;50.802;4.350;2024-02-14T09:26:57;11.65;;;8.15;;
22490;SDS011;11412;50.802;4.350;2024-02-14T09:29:23;12.48;;;7.78;;
22490;SDS011;11412;50.802;4.350;2024-02-14T09:31:50;14.30;;;7.40;;
22490;SDS011;11412;50.802;4.350;2024-02-14T09:34:16;9.52;;;7.20;;
22490;SDS011;11412;50.802;4.350;2024-02-14T09:36:44;10.52;;;7.28;;
22490;SDS011;11412;50.802;4.350;2024-02-14T09:39:13;13.15;;;7.03;;
22490;SDS011;11412;50.802;4.350;2024-02-14T09:41:42;7.72;;;6.25;;
22490;SDS011;11412;50.802;4.350;2024-02-14T09:44:12;10.70;;;7.05;;
22490;SDS011;11412;50.802;4.350;2024-02-14T09:46:38;8.63;;;6.28;;
22490;SDS011;11412;50.802;4.350;2024-02-14T09:49:05;9.30;;;6.30;;
22490;SDS011;11412;50.802;4.350;2024-02-14T09:51:32;7.90;;;6.38;;
22490;SDS011;11412;50.802;4.350;2024-02-14T09:53:59;9.10;;;6.60;;
22490;SDS011;11412;50.802;4.350;2024-02-14T09:56:26;7.90;;;6.60;;
22490;SDS011;11412;50.802;4.350;2024-02-14T09:58:53;8.35;;;6.20;;
22490;SDS011;11412;50.802;4.350;2024-02-14T10:01:24;6.85;;;6.18;;
22490;SDS011;11412;50.802;4.350;2024-02-14T10:03:50;7.65;;;6.07;;
22490;SDS011;11412;50.802;4.350;2024-02-14T10:06:19;7.38;;;6.00;;
22490;SDS011;11412;50.802;4.350;2024-02-14T10:08:46;10.02;;;6.47;;
22490;SDS011;11412;50.802;4.350;2024-02-14T10:11:13;7.15;;;5.90;;
22490;SDS011;11412;50.802;4.350;2024-02-14T10:13:40;7.57;;;5.40;;
22490;SDS011;11412;50.802;4.350;2024-02-14T10:16:10;6.85;;;5.30;;
22490;SDS011;11412;50.802;4.350;2024-02-14T10:18:37;6.13;;;4.82;;
22490;SDS011;11412;50.802;4.350;2024-02-14T10:21:04;6.60;;;5.75;;
22490;SDS011;11412;50.802;4.350;2024-02-14T10:23:30;5.45;;;4.72;;
22490;SDS011;11412;50.802;4.350;2024-02-14T10:25:57;6.10;;;4.50;;
22490;SDS011;11412;50.802;4.350;2024-02-14T10:28:24;6.22;;;5.05;;
22490;SDS011;11412;50.802;4.350;2024-02-14T10:30:50;6.30;;;4.22;;
22490;SDS011;11412;50.802;4.350;2024-02-14T10:33:16;4.57;;;4.18;;
22490;SDS011;11412;50.802;4.350;2024-02-14T10:35:42;6.28;;;4.25;;
22490;SDS011;11412;50.802;4.350;2024-02-14T10:38:08;4.47;;;3.90;;
22490;SDS011;11412;50.802;4.350;2024-02-14T10:40:35;5.85;;;3.67;;
22490;SDS011;11412;50.802;4.350;2024-02-14T10:43:01;4.90;;;4.25;;
22490;SDS011;11412;50.802;4.350;2024-02-14T10:45:27;3.85;;;3.20;;
22490;SDS011;11412;50.802;4.350;2024-02-14T10:47:53;4.43;;;3.55;;
22490;SDS011;11412;50.802;4.350;2024-02-14T10:50:22;4.15;;;3.45;;
22490;SDS011;11412;50.802;4.350;2024-02-14T10:52:49;3.92;;;3.55;;
22490;SDS011;11412;50.802;4.350;2024-02-14T10:55:20;3.60;;;3.30;;
22490;SDS011;11412;50.802;4.350;2024-02-14T10:57:51;4.55;;;3.22;;
22490;SDS011;11412;50.802;4.350;2024-02-14T11:00:19;4.22;;;3.47;;
22490;SDS011;11412;50.802;4.350;2024-02-14T11:02:45;4.45;;;3.15;;
22490;SDS011;11412;50.802;4.350;2024-02-14T11:05:14;3.17;;;2.88;;
22490;SDS011;11412;50.802;4.350;2024-02-14T11:07:46;3.25;;;3.05;;
22490;SDS011;11412;50.802;4.350;2024-02-14T11:10:16;3.60;;;3.13;;
22490;SDS011;11412;50.802;4.350;2024-02-14T11:12:42;3.33;;;2.83;;
22490;SDS011;11412;50.802;4.350;2024-02-14T11:15:17;4.57;;;3.72;;
22490;SDS011;11412;50.802;4.350;2024-02-14T11:17:44;4.80;;;3.53;;
22490;SDS011;11412;50.802;4.350;2024-02-14T11:20:12;4.35;;;3.33;;
22490;SDS011;11412;50.802;4.350;2024-02-14T11:25:33;5.72;;;3.78;;
22490;SDS011;11412;50.802;4.350;2024-02-14T11:27:59;4.95;;;3.70;;
22490;SDS011;11412;50.802;4.350;2024-02-14T11:30:39;5.28;;;3.63;;
22490;SDS011;11412;50.802;4.350;2024-02-14T11:33:21;5.80;;;3.72;;
22490;SDS011;11412;50.802;4.350;2024-02-14T11:35:50;7.97;;;4.07;;
22490;SDS011;11412;50.802;4.350;2024-02-14T11:38:18;8.27;;;4.00;;
22490;SDS011;11412;50.802;4.350;2024-02-14T11:40:44;5.82;;;4.18;;
22490;SDS011;11412;50.802;4.350;2024-02-14T11:43:11;6.65;;;4.22;;
22490;SDS011;11412;50.802;4.350;2024-02-14T11:45:38;8.20;;;4.35;;
22490;SDS011;11412;50.802;4.350;2024-02-14T11:48:08;8.05;;;4.38;;
22490;SDS011;11412;50.802;4.350;2024-02-14T11:50:40;5.82;;;4.30;;
22490;SDS011;11412;50.802;4.350;2024-02-14T11:53:08;6.80;;;4.38;;
22490;SDS011;11412;50.802;4.350;2024-02-14T11:55:44;6.75;;;4.30;;
22490;SDS011;11412;50.802;4.350;2024-02-14T11:58:13;8.95;;;4.75;;
22490;SDS011;11412;50.802;4.350;2024-02-14T12:00:41;6.63;;;4.15;;
22490;SDS011;11412;50.802;4.350;2024-02-14T12:03:13;7.88;;;4.78;;
22490;SDS011;11412;50.802;4.350;2024-02-14T12:05:49;8.18;;;4.65;;
22490;SDS011;11412;50.802;4.350;2024-02-14T12:08:16;7.07;;;4.40;;
22490;SDS011;11412;50.802;4.350;2024-02-14T12:10:43;8.57;;;4.90;;
22490;SDS011;11412;50.802;4.350;2024-02-14T12:13:13;5.40;;;4.07;;
22490;SDS011;11412;50.802;4.350;2024-02-14T12:15:46;6.03;;;4.50;;
22490;SDS011;11412;50.802;4.350;2024-02-14T12:18:16;11.57;;;4.68;;
22490;SDS011;11412;50.802;4.350;2024-02-14T12:20:46;9.98;;;4.47;;
22490;SDS011;11412;50.802;4.350;2024-02-14T12:23:17;10.02;;;5.10;;
22490;SDS011;11412;50.802;4.350;2024-02-14T12:25:44;7.43;;;4.43;;
22490;SDS011;11412;50.802;4.350;2024-02-14T12:28:18;8.38;;;5.57;;
22490;SDS011;11412;50.802;4.350;2024-02-14T12:30:50;10.20;;;5.50;;
22490;SDS011;11412;50.802;4.350;2024-02-14T12:33:24;9.10;;;5.60;;
22490;SDS011;11412;50.802;4.350;2024-02-14T12:35:51;11.55;;;4.50;;
22490;SDS011;11412;50.802;4.350;2024-02-14T12:38:19;7.72;;;4.47;;
22490;SDS011;11412;50.802;4.350;2024-02-14T12:40:47;8.90;;;4.40;;
22490;SDS011;11412;50.802;4.350;2024-02-14T12:43:16;6.38;;;3.85;;
22490;SDS011;11412;50.802;4.350;2024-02-14T12:45:42;7.38;;;3.97;;
22490;SDS011;11412;50.802;4.350;2024-02-14T12:48:09;7.47;;;3.45;;
22490;SDS011;11412;50.802;4.350;2024-02-14T12:50:37;5.80;;;3.75;;
22490;SDS011;11412;50.802;4.350;2024-02-14T12:53:06;7.13;;;3.55;;
22490;SDS011;11412;50.802;4.350;2024-02-14T12:55:33;5.22;;;3.63;;
22490;SDS011;11412;50.802;4.350;2024-02-14T12:57:59;5.60;;;3.90;;
22490;SDS011;11412;50.802;4.350;2024-02-14T13:00:24;6.15;;;3.65;;
22490;SDS011;11412;50.802;4.350;2024-02-14T13:02:51;8.13;;;3.78;;
22490;SDS011;11412;50.802;4.350;2024-02-14T13:05:18;7.82;;;3.47;;
22490;SDS011;11412;50.802;4.350;2024-02-14T13:07:44;5.18;;;3.25;;
22490;SDS011;11412;50.802;4.350;2024-02-14T13:10:12;5.70;;;2.90;;
22490;SDS011;11412;50.802;4.350;2024-02-14T13:12:37;4.22;;;3.78;;
22490;SDS011;11412;50.802;4.350;2024-02-14T13:15:04;7.32;;;3.67;;
22490;SDS011;11412;50.802;4.350;2024-02-14T13:17:30;4.60;;;3.40;;
22490;SDS011;11412;50.802;4.350;2024-02-14T13:19:56;5.72;;;3.60;;
22490;SDS011;11412;50.802;4.350;2024-02-14T13:22:22;6.93;;;3.58;;
22490;SDS011;11412;50.802;4.350;2024-02-14T13:24:48;5.18;;;3.60;;
22490;SDS011;11412;50.802;4.350;2024-02-14T13:27:14;4.85;;;3.83;;
22490;SDS011;11412;50.802;4.350;2024-02-14T13:29:40;3.60;;;3.25;;
22490;SDS011;11412;50.802;4.350;2024-02-14T13:32:06;3.60;;;3.30;;
22490;SDS011;11412;50.802;4.350;2024-02-14T13:34:32;5.68;;;3.30;;
22490;SDS011;11412;50.802;4.350;2024-02-14T13:37:00;3.72;;;3.28;;
22490;SDS011;11412;50.802;4.350;2024-02-14T13:39:27;6.00;;;3.80;;
22490;SDS011;11412;50.802;4.350;2024-02-14T13:41:53;5.35;;;3.03;;
22490;SDS011;11412;50.802;4.350;2024-02-14T13:44:20;6.22;;;3.45;;
22490;SDS011;11412;50.802;4.350;2024-02-14T13:46:45;5.35;;;3.30;;
22490;SDS011;11412;50.802;4.350;2024-02-14T13:49:12;3.15;;;2.90;;
22490;SDS011;11412;50.802;4.350;2024-02-14T13:51:41;3.88;;;3.13;;
22490;SDS011;11412;50.802;4.350;2024-02-14T13:54:06;3.47;;;2.40;;
22490;SDS011;11412;50.802;4.350;2024-02-14T13:56:34;4.50;;;2.95;;
22490;SDS011;11412;50.802;4.350;2024-02-14T13:58:59;3.45;;;2.67;;
22490;SDS011;11412;50.802;4.350;2024-02-14T14:01:25;2.65;;;2.42;;
22490;SDS011;11412;50.802;4.350;2024-02-14T14:03:51;3.58;;;2.67;;
22490;SDS011;11412;50.802;4.350;2024-02-14T14:06:20;4.63;;;2.50;;
22490;SDS011;11412;50.802;4.350;2024-02-14T14:08:46;7.00;;;3.00;;
22490;SDS011;11412;50.802;4.350;2024-02-14T14:11:11;6.40;;;2.13;;
22490;SDS011;11412;50.802;4.350;2024-02-14T14:13:37;2.25;;;2.15;;
22490;SDS011;11412;50.802;4.350;2024-02-14T14:16:03;3.53;;;2.40;;
22490;SDS011;11412;50.802;4.350;2024-02-14T14:18:30;2.40;;;2.20;;
22490;SDS011;11412;50.802;4.350;2024-02-14T14:20:56;3.83;;;2.33;;
22490;SDS011;11412;50.802;4.350;2024-02-14T14:23:22;3.78;;;2.42;;
22490;SDS011;11412;50.802;4.350;2024-02-14T14:25:47;5.10;;;2.33;;
22490;SDS011;11412;50.802;4.350;2024-02-14T14:28:13;3.80;;;2.13;;
22490;SDS011;11412;50.802;4.350;2024-02-14T14:30:39;3.58;;;2.30;;
22490;SDS011;11412;50.802;4.350;2024-02-14T14:33:06;7.13;;;2.50;;
22490;SDS011;11412;50.802;4.350;2024-02-14T14:35:33;5.28;;;2.35;;
22490;SDS011;11412;50.802;4.350;2024-02-14T14:38:01;4.70;;;2.50;;
22490;SDS011;11412;50.802;4.350;2024-02-14T14:40:29;3.75;;;1.95;;
22490;SDS011;11412;50.802;4.350;2024-02-14T14:42:56;2.00;;;1.85;;